Time;durP1;ratioP1;P1;durP2;ratioP2;P2;SDS_P1;SDS_P2;PMS_P1;PMS_P2;Temp;Humidity;BMP_temperature;BMP_pressure;BME280_temperature;BME280_humidity;BME280_pressure;Samples;Min_cycle;Max_cycle;Signal;HPM_P1;HPM_P2
2023/09/30 00:00:26;;;;;;;;;;;;;;;13.97;77.57;95599.50;5117500;28;974;-58
2023/09/30 00:02:52;;;;;;;;;;;;;;;13.78;77.65;95597.19;5117435;28;1065;-58
2023/09/30 00:05:21;;;;;;;;;;;;;;;14.16;75.96;95600.13;5117224;28;1983;-58
2023/09/30 00:07:47;;;;;;;;;;;;;;;14.22;75.93;95600.25;5117039;28;1175;-58
2023/09/30 00:10:14;;;;;;;;;;;;;;;14.04;77.17;95595.13;5117077;28;1024;-58
2023/09/30 00:12:40;;;;;;;;;;;;;;;14.05;76.67;95595.94;5099343;28;969;-58
2023/09/30 00:15:06;;;;;;;;;;;;;;;13.96;77.02;95586.22;5117049;28;1037;-58
2023/09/30 00:17:32;;;;;;;;;;;;;;;14.14;76.35;95592.22;5117225;28;998;-58
2023/09/30 00:19:59;;;;;;;;;;;;;;;13.91;77.15;95593.97;5117097;28;999;-58
2023/09/30 00:22:25;;;;;;;;;;;;;;;13.79;77.82;95586.28;5116913;28;1055;-58
2023/09/30 00:24:51;;;;;;;;;;;;;;;13.74;78.69;95593.16;5117063;28;1886;-58
2023/09/30 00:27:17;;;;;;;;;;;;;;;13.67;78.61;95583.06;5116738;28;1044;-58
2023/09/30 00:29:43;;;;;;;;;;;;;;;13.62;79.13;95589.97;5117004;28;1012;-58
2023/09/30 00:32:09;;;;;;;;;;;;;;;13.59;79.01;95579.56;5116950;28;1056;-58
2023/09/30 00:34:35;;;;;;;;;;;;;;;13.88;78.09;95583.56;5116676;28;1103;-58
2023/09/30 00:37:01;;;;;;;;;;;;;;;13.53;78.52;95586.47;5116650;28;1036;-58
2023/09/30 00:39:30;;;;;;;;;;;;;;;13.31;79.90;95573.69;5116437;28;1091;-57
2023/09/30 00:41:58;;;;;;;;;;;;;;;13.35;80.50;95575.03;5116864;28;958;-57
2023/09/30 00:44:27;;;;;;;;;;;;;;;13.17;81.14;95580.56;5116616;28;1911;-58
2023/09/30 00:46:55;;;;;;;;;;;;;;;13.32;80.21;95586.97;5116614;28;1048;-58
2023/09/30 00:49:22;;;;;;;;;;;;;;;13.33;80.36;95585.94;5115828;28;1051;-58
2023/09/30 00:51:49;;;;;;;;;;;;;;;13.54;79.22;95587.28;5116360;28;1131;-58
2023/09/30 00:54:15;;;;;;;;;;;;;;;13.54;79.39;95589.97;5116419;28;1045;-58
2023/09/30 00:56:45;;;;;;;;;;;;;;;13.74;78.50;95577.88;5116487;28;1075;-58
2023/09/30 00:59:12;;;;;;;;;;;;;;;13.66;79.20;95586.78;5116391;28;1154;-58
2023/09/30 01:01:39;;;;;;;;;;;;;;;13.33;79.64;95591.31;5098107;28;1923;-58
2023/09/30 01:04:05;;;;;;;;;;;;;;;13.12;80.91;95588.25;5116043;28;1919;-58
2023/09/30 01:06:31;;;;;;;;;;;;;;;13.39;79.60;95585.28;5115952;28;1052;-58
2023/09/30 01:08:57;;;;;;;;;;;;;;;13.09;80.68;95589.44;5126144;27;1115;-58
2023/09/30 01:11:24;;;;;;;;;;;;;;;13.02;81.12;95573.13;5136728;27;996;-58
2023/09/30 01:13:50;;;;;;;;;;;;;;;13.19;80.38;95573.16;5136635;27;953;-58
2023/09/30 01:16:16;;;;;;;;;;;;;;;12.97;81.88;95577.31;5136667;27;996;-58
2023/09/30 01:18:42;;;;;;;;;;;;;;;12.98;81.57;95573.66;5136387;27;1056;-58
2023/09/30 01:21:09;;;;;;;;;;;;;;;13.01;81.66;95582.22;5136333;27;1052;-58
2023/09/30 01:23:35;;;;;;;;;;;;;;;13.00;81.02;95580.53;5136505;27;1994;-58
2023/09/30 01:26:06;;;;;;;;;;;;;;;13.17;80.59;95581.38;5136503;27;1056;-57
2023/09/30 01:28:32;;;;;;;;;;;;;;;13.37;79.82;95579.22;5136450;27;1029;-58
2023/09/30 01:30:59;;;;;;;;;;;;;;;13.12;81.21;95583.72;5136497;27;1068;-58
2023/09/30 01:33:25;;;;;;;;;;;;;;;12.98;80.49;95585.22;5136012;27;1036;-58
2023/09/30 01:35:51;;;;;;;;;;;;;;;13.25;79.47;95577.84;5136316;27;1047;-58
2023/09/30 01:38:17;;;;;;;;;;;;;;;13.35;79.54;95588.47;5136223;27;1044;-57
2023/09/30 01:40:43;;;;;;;;;;;;;;;12.86;81.27;95586.53;5136239;27;1024;-57
2023/09/30 01:43:13;;;;;;;;;;;;;;;12.70;81.55;95588.16;5136246;27;1910;-58
2023/09/30 01:45:39;;;;;;;;;;;;;;;13.00;80.64;95585.06;5136176;27;984;-58
2023/09/30 01:48:06;;;;;;;;;;;;;;;13.24;79.57;95587.78;5135917;27;1045;-57
2023/09/30 01:50:32;;;;;;;;;;;;;;;13.24;79.91;95581.53;5135925;27;1048;-57
2023/09/30 01:52:58;;;;;;;;;;;;;;;13.16;80.26;95578.84;5135729;27;1079;-57
2023/09/30 01:55:24;;;;;;;;;;;;;;;13.19;80.26;95582.06;5135897;27;1063;-57
2023/09/30 01:57:49;;;;;;;;;;;;;;;13.30;79.86;95578.25;5135808;27;1024;-57
2023/09/30 02:00:17;;;;;;;;;;;;;;;12.94;81.27;95581.19;5115164;28;1315;-57
2023/09/30 02:02:44;;;;;;;;;;;;;;;12.84;81.37;95575.97;5114997;28;906;-57
2023/09/30 02:05:10;;;;;;;;;;;;;;;12.67;82.10;95577.78;5114757;28;1914;-57
2023/09/30 02:07:36;;;;;;;;;;;;;;;12.81;81.38;95581.66;5114856;28;909;-57
2023/09/30 02:10:02;;;;;;;;;;;;;;;12.95;81.24;95576.66;5096621;28;1315;-57
2023/09/30 02:12:28;;;;;;;;;;;;;;;12.81;81.46;95581.66;5114709;28;1032;-57
2023/09/30 02:14:54;;;;;;;;;;;;;;;12.72;82.14;95571.06;5114828;28;985;-56
2023/09/30 02:17:20;;;;;;;;;;;;;;;12.69;82.51;95574.91;5114733;28;977;-57
2023/09/30 02:19:47;;;;;;;;;;;;;;;12.97;80.94;95575.47;5114673;28;977;-57
2023/09/30 02:22:12;;;;;;;;;;;;;;;12.76;81.63;95573.25;5114666;28;1087;-57
2023/09/30 02:24:40;;;;;;;;;;;;;;;12.53;82.67;95574.88;5114726;28;1945;-57
2023/09/30 02:27:06;;;;;;;;;;;;;;;12.46;83.29;95575.53;5114510;28;1036;-57
2023/09/30 02:29:32;;;;;;;;;;;;;;;12.53;83.48;95583.75;5114711;28;1049;-57
2023/09/30 02:31:58;;;;;;;;;;;;;;;12.49;83.55;95580.56;5114474;28;1091;-57
2023/09/30 02:34:24;;;;;;;;;;;;;;;12.51;83.38;95591.13;5114212;28;1048;-57
2023/09/30 02:36:50;;;;;;;;;;;;;;;12.57;83.12;95582.44;5114643;28;1015;-57
2023/09/30 02:39:16;;;;;;;;;;;;;;;12.76;82.30;95588.53;5114496;28;996;-56
2023/09/30 02:41:42;;;;;;;;;;;;;;;12.88;81.53;95584.50;5114483;28;1003;-57
2023/09/30 02:44:08;;;;;;;;;;;;;;;12.82;81.47;95583.31;5114319;28;1914;-57
2023/09/30 02:46:34;;;;;;;;;;;;;;;12.55;83.18;95584.44;5114301;28;1004;-57
2023/09/30 02:49:01;;;;;;;;;;;;;;;12.51;83.18;95583.09;5114400;28;1003;-57
2023/09/30 02:51:27;;;;;;;;;;;;;;;12.33;83.98;95582.34;5114261;28;966;-57
2023/09/30 02:53:53;;;;;;;;;;;;;;;12.16;84.71;95584.97;5114106;28;1047;-57
2023/09/30 02:56:19;;;;;;;;;;;;;;;12.23;84.41;95590.50;5114168;28;976;-57
2023/09/30 02:58:45;;;;;;;;;;;;;;;12.42;83.63;95590.25;5121451;27;1157;-57
2023/09/30 03:01:16;;;;;;;;;;;;;;;12.28;83.87;95588.19;5134434;27;1063;-57
2023/09/30 03:03:44;;;;;;;;;;;;;;;12.48;83.29;95586.06;5134341;27;1901;-57
2023/09/30 03:06:10;;;;;;;;;;;;;;;12.54;82.77;95587.28;5134395;27;1028;-58
2023/09/30 03:08:36;;;;;;;;;;;;;;;12.57;83.32;95586.97;5134239;27;1242;-58
2023/09/30 03:11:04;;;;;;;;;;;;;;;12.60;82.37;95583.97;5134292;27;1218;-57
2023/09/30 03:13:30;;;;;;;;;;;;;;;12.26;83.81;95591.03;5134279;27;1040;-57
2023/09/30 03:15:57;;;;;;;;;;;;;;;12.40;83.68;95586.88;5134633;27;1066;-57
2023/09/30 03:18:26;;;;;;;;;;;;;;;12.66;81.49;95584.13;5134225;27;1032;-58
2023/09/30 03:20:56;;;;;;;;;;;;;;;12.39;82.17;95589.75;5134251;28;1107;-57
2023/09/30 03:23:22;;;;;;;;;;;;;;;12.37;82.73;95589.06;5134243;28;1083;-59
2023/09/30 03:25:48;;;;;;;;;;;;;;;12.46;82.53;95574.69;5134244;28;1127;-58
2023/09/30 03:28:14;;;;;;;;;;;;;;;12.50;82.11;95578.72;5134459;28;1043;-58
2023/09/30 03:30:40;;;;;;;;;;;;;;;12.29;83.11;95581.81;5134206;28;1028;-57
2023/09/30 03:33:06;;;;;;;;;;;;;;;12.48;82.81;95575.34;5134094;28;1044;-58
2023/09/30 03:35:32;;;;;;;;;;;;;;;12.39;82.58;95571.00;5134199;28;1991;-57
2023/09/30 03:37:58;;;;;;;;;;;;;;;12.35;82.97;95585.69;5134218;28;1110;-56
2023/09/30 03:40:28;;;;;;;;;;;;;;;12.47;82.11;95571.00;5134020;28;1091;-56
2023/09/30 03:42:54;;;;;;;;;;;;;;;12.18;83.38;95585.63;5134702;28;973;-57
2023/09/30 03:45:20;;;;;;;;;;;;;;;12.10;83.63;95574.84;5134310;28;1033;-57
2023/09/30 03:47:47;;;;;;;;;;;;;;;12.18;83.62;95579.41;5133990;28;1037;-58
2023/09/30 03:50:16;;;;;;;;;;;;;;;11.99;84.15;95586.72;5133904;28;1032;-57
2023/09/30 03:52:47;;;;;;;;;;;;;;;12.05;84.03;95587.91;5133985;28;1036;-57
2023/09/30 03:55:15;;;;;;;;;;;;;;;12.04;84.26;95581.69;5133997;28;1979;-58
2023/09/30 03:57:41;;;;;;;;;;;;;;;12.39;82.83;95582.53;5133963;28;1858;-58
2023/09/30 04:00:11;;;;;;;;;;;;;;;12.61;81.88;95580.25;5114835;28;1153;-58
2023/09/30 04:02:37;;;;;;;;;;;;;;;12.46;82.41;95569.31;5113598;28;1068;-58
2023/09/30 04:05:05;;;;;;;;;;;;;;;12.13;83.45;95579.91;5113547;28;1016;-57
2023/09/30 04:07:32;;;;;;;;;;;;;;;12.33;82.59;95582.34;5113368;28;1048;-58
2023/09/30 04:10:01;;;;;;;;;;;;;;;12.07;83.37;95586.75;5113211;28;1103;-58
2023/09/30 04:12:27;;;;;;;;;;;;;;;11.81;84.59;95589.41;5113159;28;1048;-58
2023/09/30 04:14:53;;;;;;;;;;;;;;;11.90;84.57;95582.31;5113367;28;1905;-58
2023/09/30 04:17:18;;;;;;;;;;;;;;;12.17;83.19;95585.78;5113474;28;982;-56
2023/09/30 04:19:45;;;;;;;;;;;;;;;12.09;83.43;95590.13;5113422;28;1048;-57
2023/09/30 04:22:12;;;;;;;;;;;;;;;12.13;83.38;95581.75;5113147;28;1044;-57
2023/09/30 04:24:39;;;;;;;;;;;;;;;12.11;83.65;95585.44;5116499;28;1143;-57
2023/09/30 04:27:07;;;;;;;;;;;;;;;12.06;83.87;95586.91;5116844;28;1205;-57
2023/09/30 04:29:34;;;;;;;;;;;;;;;12.04;83.78;95583.53;5116993;28;962;-56
2023/09/30 04:32:00;;;;;;;;;;;;;;;11.84;84.19;95594.47;5116766;28;1115;-57
2023/09/30 04:34:28;;;;;;;;;;;;;;;11.67;85.15;95593.53;5117157;28;1905;-57
2023/09/30 04:36:54;;;;;;;;;;;;;;;11.70;85.51;95595.03;5116831;28;1041;-57
2023/09/30 04:39:20;;;;;;;;;;;;;;;12.03;84.40;95597.97;5116878;28;968;-56
2023/09/30 04:41:46;;;;;;;;;;;;;;;12.26;82.86;95599.06;5116649;28;1036;-56
2023/09/30 04:44:12;;;;;;;;;;;;;;;12.25;83.34;95597.38;5116382;28;1044;-57
2023/09/30 04:46:40;;;;;;;;;;;;;;;12.14;83.97;95603.06;5116808;28;1061;-56
2023/09/30 04:49:09;;;;;;;;;;;;;;;12.11;84.41;95608.72;5116449;28;1052;-55
2023/09/30 04:51:35;;;;;;;;;;;;;;;12.04;84.89;95607.66;5116629;28;920;-56
2023/09/30 04:54:03;;;;;;;;;;;;;;;12.10;84.79;95609.72;5116279;28;1988;-55
2023/09/30 04:56:29;;;;;;;;;;;;;;;12.21;84.42;95606.75;5116208;28;1115;-56
2023/09/30 04:58:55;;;;;;;;;;;;;;;12.19;84.37;95608.75;5116190;28;1149;-56
2023/09/30 05:01:21;;;;;;;;;;;;;;;12.16;85.30;95606.41;5116392;28;1025;-56
2023/09/30 05:03:49;;;;;;;;;;;;;;;12.11;85.21;95611.41;5116357;28;988;-56
2023/09/30 05:06:15;;;;;;;;;;;;;;;12.25;84.90;95613.47;5116013;28;1052;-57
2023/09/30 05:08:41;;;;;;;;;;;;;;;12.60;83.00;95602.75;5123992;27;1107;-57
2023/09/30 05:11:07;;;;;;;;;;;;;;;12.70;83.17;95606.94;5136873;27;1009;-56
2023/09/30 05:13:36;;;;;;;;;;;;;;;12.55;84.57;95618.47;5136365;27;1990;-56
2023/09/30 05:16:03;;;;;;;;;;;;;;;12.75;83.80;95613.66;5136776;27;977;-56
2023/09/30 05:18:29;;;;;;;;;;;;;;;12.81;83.95;95604.97;5136529;27;1047;-56
2023/09/30 05:20:56;;;;;;;;;;;;;;;13.02;83.45;95607.22;5136710;27;1024;-56
2023/09/30 05:23:22;;;;;;;;;;;;;;;12.95;84.40;95612.38;5136364;27;1016;-56
2023/09/30 05:25:48;;;;;;;;;;;;;;;13.20;82.24;95623.16;5136251;27;1040;-56
2023/09/30 05:28:15;;;;;;;;;;;;;;;13.53;79.82;95624.06;5136238;27;1040;-55
2023/09/30 05:30:41;;;;;;;;;;;;;;;13.85;78.72;95619.69;5136211;27;1996;-56
2023/09/30 05:33:07;;;;;;;;;;;;;;;14.04;78.73;95626.56;5136166;27;1072;-55
2023/09/30 05:35:33;;;;;;;;;;;;;;;14.34;75.66;95624.09;5135610;27;1978;-56
2023/09/30 05:38:00;;;;;;;;;;;;;;;14.46;76.41;95625.44;5136216;27;1039;-55
2023/09/30 05:40:26;;;;;;;;;;;;;;;14.84;76.04;95625.63;5135874;27;1040;-55
2023/09/30 05:42:53;;;;;;;;;;;;;;;15.81;73.07;95623.28;5118001;27;995;-56
2023/09/30 05:45:19;;;;;;;;;;;;;;;17.72;64.46;95628.91;5136159;27;1015;-56
2023/09/30 05:47:45;;;;;;;;;;;;;;;18.82;58.78;95637.44;5135946;27;1099;-56
2023/09/30 05:50:16;;;;;;;;;;;;;;;20.24;53.16;95649.28;5135749;27;2121;-56
2023/09/30 05:52:44;;;;;;;;;;;;;;;20.98;50.64;95647.31;5135887;27;1064;-56
2023/09/30 05:55:10;;;;;;;;;;;;;;;21.53;50.42;95647.75;5135491;27;2000;-55
2023/09/30 05:57:36;;;;;;;;;;;;;;;22.10;47.82;95653.25;5135681;27;1032;-56
2023/09/30 06:00:45;;;;;;;;;;;;;;;21.73;47.29;95658.50;5117426;27;1157;-56
2023/09/30 06:02:52;;;;;;;;;;;;;;;22.22;47.18;95656.06;5106883;28;1641;-56
2023/09/30 06:05:18;;;;;;;;;;;;;;;22.17;46.03;95661.34;5114948;28;1044;-56
2023/09/30 06:07:46;;;;;;;;;;;;;;;21.12;48.53;95651.66;5114860;28;1115;-56
2023/09/30 06:10:12;;;;;;;;;;;;;;;19.95;51.93;95642.41;5114787;28;1048;-56
2023/09/30 06:16:00;;;;;;;;;;;;;;;19.42;53.19;95657.47;5114804;28;738;-55
2023/09/30 06:18:26;;;;;;;;;;;;;;;19.35;54.68;95653.09;5114873;28;1015;-55
2023/09/30 06:20:52;;;;;;;;;;;;;;;19.38;54.25;95652.69;5115010;28;1059;-56
2023/09/30 06:23:18;;;;;;;;;;;;;;;19.57;53.93;95648.34;5114771;28;1011;-56
2023/09/30 06:25:44;;;;;;;;;;;;;;;19.84;52.89;95649.25;5114885;28;958;-56
2023/09/30 06:28:10;;;;;;;;;;;;;;;20.09;52.96;95653.06;5114608;28;982;-56
2023/09/30 06:30:37;;;;;;;;;;;;;;;20.04;53.13;95652.00;5114518;28;957;-56
2023/09/30 06:33:04;;;;;;;;;;;;;;;20.05;52.96;95649.09;5114803;28;1001;-55
2023/09/30 06:35:34;;;;;;;;;;;;;;;20.02;53.18;95648.66;5114482;28;1905;-55
2023/09/30 06:38:01;;;;;;;;;;;;;;;20.00;52.77;95654.31;5114524;28;959;-55
2023/09/30 06:40:27;;;;;;;;;;;;;;;19.80;53.89;95658.88;5114377;28;1011;-55
2023/09/30 06:42:53;;;;;;;;;;;;;;;19.77;54.64;95656.56;5113785;28;1107;-56
2023/09/30 06:45:21;;;;;;;;;;;;;;;19.67;55.21;95655.06;5113609;28;1048;-56
2023/09/30 06:47:48;;;;;;;;;;;;;;;19.93;55.39;95647.19;5114130;28;917;-56
2023/09/30 06:50:16;;;;;;;;;;;;;;;19.97;54.52;95654.69;5114383;28;982;-56
2023/09/30 06:52:45;;;;;;;;;;;;;;;20.15;52.63;95651.38;5114275;28;1064;-55
2023/09/30 06:55:13;;;;;;;;;;;;;;;20.20;53.10;95651.56;5113492;28;1992;-56
2023/09/30 06:57:43;;;;;;;;;;;;;;;20.42;52.87;95646.78;5113990;28;1048;-56
2023/09/30 07:00:09;;;;;;;;;;;;;;;20.52;53.31;95649.06;5133083;27;1221;-56
2023/09/30 07:02:38;;;;;;;;;;;;;;;20.52;53.67;95646.34;5134711;27;1044;-56
2023/09/30 07:05:08;;;;;;;;;;;;;;;20.79;53.89;95657.19;5134764;27;1041;-56
2023/09/30 07:07:36;;;;;;;;;;;;;;;20.85;52.73;95661.78;5134745;27;1083;-56
2023/09/30 07:10:04;;;;;;;;;;;;;;;20.97;52.03;95656.53;5134326;27;1103;-56
2023/09/30 07:12:31;;;;;;;;;;;;;;;21.17;52.79;95661.88;5134581;27;1058;-56
2023/09/30 07:14:57;;;;;;;;;;;;;;;21.20;52.25;95654.13;5134335;27;2005;-56
2023/09/30 07:17:23;;;;;;;;;;;;;;;21.10;53.15;95656.47;5134502;27;1048;-55
2023/09/30 07:19:50;;;;;;;;;;;;;;;21.45;51.23;95656.97;5134499;28;961;-56
2023/09/30 07:22:16;;;;;;;;;;;;;;;21.70;51.17;95658.09;5134326;28;1008;-56
2023/09/30 07:24:42;;;;;;;;;;;;;;;21.92;49.63;95661.31;5134238;28;1182;-56
2023/09/30 07:27:08;;;;;;;;;;;;;;;22.18;49.29;95660.31;5134239;28;969;-56
2023/09/30 07:29:34;;;;;;;;;;;;;;;22.34;49.25;95659.75;5133463;27;2598;-56
2023/09/30 07:32:01;;;;;;;;;;;;;;;22.57;47.73;95671.94;5134452;28;984;-56
2023/09/30 07:34:27;;;;;;;;;;;;;;;22.83;47.05;95667.28;5134055;28;1913;-55
2023/09/30 07:36:53;;;;;;;;;;;;;;;23.02;46.58;95670.88;5134279;28;1012;-56
2023/09/30 07:39:20;;;;;;;;;;;;;;;23.18;46.45;95671.13;5134311;28;1051;-56
2023/09/30 07:41:46;;;;;;;;;;;;;;;23.52;45.16;95671.56;5134042;28;1111;-56
2023/09/30 07:44:12;;;;;;;;;;;;;;;23.66;45.06;95668.66;5134263;28;1036;-56
2023/09/30 07:46:38;;;;;;;;;;;;;;;23.95;44.72;95672.47;5134303;28;1046;-56
2023/09/30 07:49:06;;;;;;;;;;;;;;;24.02;43.40;95678.69;5134313;28;969;-56
2023/09/30 07:51:32;;;;;;;;;;;;;;;24.25;43.71;95672.44;5134229;28;1051;-55
2023/09/30 07:53:58;;;;;;;;;;;;;;;24.47;43.38;95677.31;5134494;28;1917;-56
2023/09/30 07:56:25;;;;;;;;;;;;;;;24.54;42.01;95678.91;5133840;27;1032;-56
2023/09/30 07:58:51;;;;;;;;;;;;;;;24.74;41.82;95678.59;5137922;27;1161;-56
2023/09/30 08:01:17;;;;;;;;;;;;;;;24.98;39.16;95683.22;5138216;27;1068;-56
2023/09/30 08:03:43;;;;;;;;;;;;;;;25.10;38.89;95687.59;5138072;27;1035;-56
2023/09/30 08:06:09;;;;;;;;;;;;;;;24.99;38.06;95688.44;5138429;27;949;-56
2023/09/30 08:08:36;;;;;;;;;;;;;;;24.86;39.14;95681.31;5137674;27;1233;-56
2023/09/30 08:11:02;;;;;;;;;;;;;;;24.91;39.58;95677.88;5137777;27;1024;-56
2023/09/30 08:13:29;;;;;;;;;;;;;;;24.85;38.52;95678.81;5137910;27;1909;-55
2023/09/30 08:15:55;;;;;;;;;;;;;;;25.02;38.15;95682.47;5136831;27;2202;-56
2023/09/30 08:18:21;;;;;;;;;;;;;;;25.19;39.55;95674.38;5158152;27;1032;-55
2023/09/30 08:20:49;;;;;;;;;;;;;;;25.23;38.51;95680.22;5158496;27;1040;-56
2023/09/30 08:23:15;;;;;;;;;;;;;;;25.23;37.38;95681.09;5158223;27;1089;-56
2023/09/30 08:25:41;;;;;;;;;;;;;;;25.33;38.08;95675.00;5158447;27;1014;-56
2023/09/30 08:28:09;;;;;;;;;;;;;;;25.56;37.98;95681.47;5158170;27;1106;-56
2023/09/30 08:30:38;;;;;;;;;;;;;;;25.59;37.51;95678.25;5158347;27;1044;-56
2023/09/30 08:33:04;;;;;;;;;;;;;;;25.48;37.27;95669.84;5158068;27;1023;-56
2023/09/30 08:35:31;;;;;;;;;;;;;;;25.60;38.01;95672.53;5158239;27;1890;-56
2023/09/30 08:37:58;;;;;;;;;;;;;;;25.69;37.06;95673.81;5158077;27;1007;-56
2023/09/30 08:40:24;;;;;;;;;;;;;;;25.83;37.49;95676.25;5157774;27;1153;-56
2023/09/30 08:42:53;;;;;;;;;;;;;;;25.88;37.03;95677.19;5158198;27;972;-56
2023/09/30 08:45:19;;;;;;;;;;;;;;;25.84;35.30;95675.19;5157803;27;1280;-56
2023/09/30 08:47:50;;;;;;;;;;;;;;;25.79;35.88;95667.69;5157810;27;1035;-56
2023/09/30 08:50:16;;;;;;;;;;;;;;;25.92;36.13;95669.34;5157737;27;920;-56
2023/09/30 08:52:43;;;;;;;;;;;;;;;26.08;36.02;95664.97;5157942;27;987;-56
2023/09/30 08:55:10;;;;;;;;;;;;;;;26.16;36.37;95661.84;5157580;27;1901;-56
2023/09/30 08:57:40;;;;;;;;;;;;;;;26.14;36.40;95669.47;5157848;27;969;-56
2023/09/30 09:00:07;;;;;;;;;;;;;;;26.13;34.42;95673.28;5138576;27;1260;-56
2023/09/30 09:02:36;;;;;;;;;;;;;;;26.27;36.27;95665.56;5136727;27;1200;-56
2023/09/30 09:05:02;;;;;;;;;;;;;;;26.48;34.61;95662.13;5136808;27;1027;-55
2023/09/30 09:07:30;;;;;;;;;;;;;;;26.52;33.58;95669.81;5136567;27;1032;-56
2023/09/30 09:10:10;;;;;;;;;;;;;;;26.44;34.46;95652.72;5135789;27;1194;-55
2023/09/30 09:12:36;;;;;;;;;;;;;;;26.51;34.26;95651.72;5136613;27;1884;-56
2023/09/30 09:15:05;;;;;;;;;;;;;;;26.56;33.78;95655.38;5136811;27;2007;-55
2023/09/30 09:17:44;;;;;;;;;;;;;;;26.64;33.14;95657.72;5136705;27;1047;-56
2023/09/30 09:20:20;;;;;;;;;;;;;;;26.66;34.24;95654.75;5136716;27;1052;-56
2023/09/30 09:22:47;;;;;;;;;;;;;;;26.51;32.93;95658.03;5136731;27;1027;-56
2023/09/30 09:25:13;;;;;;;;;;;;;;;26.44;34.02;95657.38;5136600;27;996;-56
2023/09/30 09:27:39;;;;;;;;;;;;;;;26.42;32.85;95652.13;5136298;27;1196;-56
2023/09/30 09:30:25;;;;;;;;;;;;;;;26.42;33.32;95656.78;5136541;27;1027;-56
2023/09/30 09:32:53;;;;;;;;;;;;;;;26.28;33.87;95645.31;5136462;27;1016;-56
2023/09/30 09:35:20;;;;;;;;;;;;;;;26.41;33.81;95653.22;5136316;27;1988;-56
2023/09/30 09:38:16;;;;;;;;;;;;;;;26.50;32.97;95648.13;5136418;27;1051;-56
2023/09/30 09:40:41;;;;;;;;;;;;;;;26.45;31.78;95648.06;5114586;27;1326;-56
2023/09/30 09:43:08;;;;;;;;;;;;;;;26.51;32.33;95644.34;5135987;27;1040;-55
2023/09/30 09:45:34;;;;;;;;;;;;;;;26.49;32.55;95641.00;5136190;27;972;-56
2023/09/30 09:48:01;;;;;;;;;;;;;;;26.54;32.26;95638.34;5117983;27;999;-56
2023/09/30 09:50:27;;;;;;;;;;;;;;;26.56;31.57;95636.19;5136140;27;1052;-56
2023/09/30 09:52:58;;;;;;;;;;;;;;;26.57;31.76;95637.03;5136127;27;961;-55
2023/09/30 09:55:25;;;;;;;;;;;;;;;26.44;31.12;95644.47;5136036;27;1901;-56
2023/09/30 09:57:51;;;;;;;;;;;;;;;26.59;32.16;95635.72;5135966;27;988;-55
2023/09/30 10:00:19;;;;;;;;;;;;;;;26.73;30.80;95635.34;5135755;27;1248;-55
2023/09/30 10:02:48;;;;;;;;;;;;;;;26.71;29.71;95634.78;5135815;27;1033;-56
2023/09/30 10:05:15;;;;;;;;;;;;;;;26.59;31.22;95632.97;5117223;27;1087;-56
2023/09/30 10:07:55;;;;;;;;;;;;;;;26.79;31.60;95626.97;5135574;27;1021;-56
2023/09/30 10:10:22;;;;;;;;;;;;;;;26.89;31.71;95629.03;5135690;27;1051;-55
2023/09/30 10:12:48;;;;;;;;;;;;;;;26.77;31.38;95628.28;5135728;27;969;-56
2023/09/30 10:15:26;;;;;;;;;;;;;;;26.87;31.24;95622.97;5135409;27;1898;-56
2023/09/30 10:18:09;;;;;;;;;;;;;;;27.03;30.34;95622.09;5135283;27;1079;-56
2023/09/30 10:20:44;;;;;;;;;;;;;;;26.76;30.18;95621.16;5134287;27;1040;-56
2023/09/30 10:23:24;;;;;;;;;;;;;;;26.60;29.52;95617.38;5135497;27;1033;-56
2023/09/30 10:25:54;;;;;;;;;;;;;;;26.66;31.29;95606.22;5114567;27;2776;-56
2023/09/30 10:28:38;;;;;;;;;;;;;;;26.86;30.73;95602.09;5114613;28;1033;-56
2023/09/30 10:31:15;;;;;;;;;;;;;;;27.02;32.00;95594.91;5114459;28;1032;-56
2023/09/30 10:33:59;;;;;;;;;;;;;;;27.02;31.58;95595.72;5114679;28;1995;-56
2023/09/30 10:36:45;;;;;;;;;;;;;;;26.99;31.71;95593.50;5114526;28;1036;-56
2023/09/30 10:39:13;;;;;;;;;;;;;;;26.97;30.65;95589.34;5114204;28;1853;-56
2023/09/30 10:41:39;;;;;;;;;;;;;;;26.90;31.03;95584.06;5114524;28;966;-56
2023/09/30 10:44:31;;;;;;;;;;;;;;;26.87;31.95;95576.31;5114531;28;1049;-55
2023/09/30 10:46:58;;;;;;;;;;;;;;;26.79;30.94;95574.84;5114599;28;1064;-56
2023/09/30 10:49:24;;;;;;;;;;;;;;;26.63;31.83;95573.78;5096182;28;968;-55
2023/09/30 10:51:51;;;;;;;;;;;;;;;26.61;30.77;95569.66;5114182;28;977;-56
2023/09/30 10:54:22;;;;;;;;;;;;;;;26.25;31.29;95572.63;5113940;28;1902;-56
2023/09/30 10:56:47;;;;;;;;;;;;;;;25.90;31.36;95564.66;5114352;28;992;-56
2023/09/30 10:59:22;;;;;;;;;;;;;;;25.93;31.92;95566.91;5125254;27;1166;-56
2023/09/30 11:01:49;;;;;;;;;;;;;;;25.97;30.55;95564.50;5134708;27;1048;-56
2023/09/30 11:04:15;;;;;;;;;;;;;;;26.36;32.10;95567.34;5134731;27;925;-55
2023/09/30 11:06:42;;;;;;;;;;;;;;;26.43;31.66;95557.84;5134446;27;1059;-56
2023/09/30 11:09:13;;;;;;;;;;;;;;;26.63;31.62;95554.59;5134400;27;1257;-56
2023/09/30 11:11:43;;;;;;;;;;;;;;;26.83;31.60;95561.47;5134656;27;1003;-56
2023/09/30 11:14:18;;;;;;;;;;;;;;;26.67;30.90;95553.03;5134322;27;1989;-55
2023/09/30 11:16:44;;;;;;;;;;;;;;;26.82;31.28;95551.56;5134412;27;1052;-56
2023/09/30 11:19:11;;;;;;;;;;;;;;;26.79;30.84;95539.19;5134507;27;1036;-56
2023/09/30 11:21:38;;;;;;;;;;;;;;;26.50;31.09;95549.44;5134572;28;1052;-56
2023/09/30 11:24:04;;;;;;;;;;;;;;;26.14;31.87;95543.41;5134922;28;1048;-56
2023/09/30 11:26:33;;;;;;;;;;;;;;;25.81;32.19;95544.22;5134211;28;1048;-56
2023/09/30 11:29:06;;;;;;;;;;;;;;;25.53;32.05;95540.44;5134230;28;913;-56
2023/09/30 11:31:34;;;;;;;;;;;;;;;25.54;31.95;95533.06;5134278;27;1052;-56
2023/09/30 11:34:04;;;;;;;;;;;;;;;25.82;31.02;95534.91;5138668;27;1984;-56
2023/09/30 11:36:31;;;;;;;;;;;;;;;26.07;31.24;95538.13;5138406;27;1040;-56
2023/09/30 11:38:58;;;;;;;;;;;;;;;26.22;31.11;95532.03;5138532;27;1070;-56
2023/09/30 11:41:32;;;;;;;;;;;;;;;26.40;30.92;95530.09;5138567;27;1078;-55
2023/09/30 11:44:00;;;;;;;;;;;;;;;26.43;30.89;95532.34;5138439;27;1003;-56
2023/09/30 11:46:29;;;;;;;;;;;;;;;26.42;31.03;95526.03;5136672;27;2496;-55
2023/09/30 11:48:59;;;;;;;;;;;;;;;26.58;31.14;95521.59;5138451;27;975;-56
2023/09/30 11:51:26;;;;;;;;;;;;;;;26.59;30.09;95522.44;5138449;27;1032;-56
2023/09/30 11:53:53;;;;;;;;;;;;;;;26.56;31.03;95512.81;5138052;27;1913;-55
2023/09/30 11:56:19;;;;;;;;;;;;;;;26.20;30.72;95509.53;5138010;27;1131;-55
2023/09/30 11:58:50;;;;;;;;;;;;;;;26.09;31.15;95503.06;5138279;27;1161;-55
2023/09/30 12:01:16;;;;;;;;;;;;;;;26.15;30.52;95501.25;5137962;27;1032;-56
2023/09/30 12:03:42;;;;;;;;;;;;;;;26.30;30.91;95506.94;5137936;27;1177;-56
2023/09/30 12:06:13;;;;;;;;;;;;;;;26.35;30.73;95516.31;5138221;27;1044;-56
2023/09/30 12:08:40;;;;;;;;;;;;;;;26.30;30.53;95514.34;5137924;27;1119;-56
2023/09/30 12:11:06;;;;;;;;;;;;;;;26.28;30.33;95505.53;5137852;27;1099;-56
2023/09/30 12:13:32;;;;;;;;;;;;;;;26.29;31.08;95507.19;5137642;27;1106;-56
2023/09/30 12:15:58;;;;;;;;;;;;;;;26.32;30.74;95500.41;5137891;27;1914;-56
2023/09/30 12:18:24;;;;;;;;;;;;;;;26.25;30.45;95492.34;5137774;27;966;-56
2023/09/30 12:20:52;;;;;;;;;;;;;;;26.27;30.28;95495.66;5137636;27;1060;-56
2023/09/30 12:23:18;;;;;;;;;;;;;;;26.26;30.91;95492.09;5137873;27;972;-56
2023/09/30 12:25:44;;;;;;;;;;;;;;;26.23;30.67;95492.59;5137546;27;1107;-56
2023/09/30 12:28:10;;;;;;;;;;;;;;;26.30;30.97;95492.41;5137379;27;1004;-55
2023/09/30 12:30:36;;;;;;;;;;;;;;;26.34;30.18;95487.25;5137712;27;1040;-56
2023/09/30 12:33:02;;;;;;;;;;;;;;;26.18;29.55;95487.03;5137403;27;1036;-56
2023/09/30 12:35:28;;;;;;;;;;;;;;;26.15;30.17;95484.78;5137175;27;1996;-56
2023/09/30 12:37:54;;;;;;;;;;;;;;;26.09;29.97;95486.63;5137625;27;1041;-56
2023/09/30 12:40:20;;;;;;;;;;;;;;;26.14;29.82;95485.03;5137207;27;1040;-56
2023/09/30 12:42:47;;;;;;;;;;;;;;;26.09;29.95;95486.63;5137317;27;1020;-56
2023/09/30 12:45:13;;;;;;;;;;;;;;;26.09;30.19;95474.84;5136058;27;1102;-56
2023/09/30 12:47:39;;;;;;;;;;;;;;;26.20;30.49;95476.66;5137143;27;1028;-55
2023/09/30 12:50:08;;;;;;;;;;;;;;;26.27;30.17;95477.31;5119019;27;1047;-56
2023/09/30 12:52:35;;;;;;;;;;;;;;;26.26;30.11;95470.16;5136035;27;2528;-56
2023/09/30 12:55:01;;;;;;;;;;;;;;;26.26;29.36;95470.16;5117712;27;2892;-56
2023/09/30 12:57:27;;;;;;;;;;;;;;;26.18;29.08;95473.34;5116507;28;1020;-56
2023/09/30 12:59:53;;;;;;;;;;;;;;;26.04;27.51;95472.03;5133426;27;1154;-55
2023/09/30 13:02:19;;;;;;;;;;;;;;;26.05;28.67;95469.03;5121703;27;2542;-56